Brazoria, Texas
Current Conditions -  °F | °C
As of 7:53 AM on Saturday 22 Nov 2014 (Local Time) from KLBX Reporting Station
Clear Clear  
Wind Chill: 63°   Ceiling: Unl
Heat Index: 63°   Visibility: 10mi
Dew Point: 63°   Wind: 8mph
Humidity: 100%   Direction: 100°E
Pressure: 30.04"   Gusts: NA
Location:  29.04°N, 95.57°W
Report Text: KLBX 221353Z AUTO 10007KT 10SM CLR 17/17 A3004 RMK AO2 SLP172 T01720172
Loading
Personal Weather Stations






























Interactive Weather Map New forecast layout! Learn more

10-Day Weather Forecast

Advertisements
Track Severe Weather on mobile